Time;durP1;ratioP1;P1;durP2;ratioP2;P2;SDS_P1;SDS_P2;PMS_P1;PMS_P2;Temp;Humidity;BMP_temperature;BMP_pressure;BME280_temperature;BME280_humidity;BME280_pressure;Samples;Min_cycle;Max_cycle;Signal;HPM_P1;HPM_P2
2023/09/13 00:02:06;;;;;;;19.40;11.80;;;;;;;20.23;47.92;99451.03;109542;1252;68034;-56
2023/09/13 00:04:33;;;;;;;20.00;9.20;;;;;;;20.22;47.88;99452.84;109507;1253;72480;-57
2023/09/13 00:06:59;;;;;;;23.00;9.90;;;;;;;20.31;47.43;99448.96;109501;1252;60414;-57
2023/09/13 00:09:26;;;;;;;16.00;9.30;;;;;;;20.34;47.27;99445.48;109507;1253;60189;-57
2023/09/13 00:11:52;;;;;;;18.20;11.30;;;;;;;20.20;47.52;99445.59;109521;1254;73835;-57
2023/09/13 00:14:19;;;;;;;14.40;9.60;;;;;;;20.13;47.55;99443.09;109497;1251;68553;-57
2023/09/13 00:16:46;;;;;;;19.30;10.80;;;;;;;20.09;47.62;99446.64;109485;1252;72787;-58
2023/09/13 00:19:13;;;;;;;17.40;10.20;;;;;;;20.06;47.89;99445.20;109395;1252;60378;-57
2023/09/13 00:21:42;;;;;;;17.40;10.40;;;;;;;20.18;47.82;99448.44;109524;1254;58754;-57
2023/09/13 00:24:09;;;;;;;13.20;9.70;;;;;;;20.21;48.03;99450.54;109544;1251;73770;-57
2023/09/13 00:26:36;;;;;;;17.10;9.50;;;;;;;20.22;48.09;99446.99;109575;1251;68453;-57
2023/09/13 00:29:03;;;;;;;15.40;9.60;;;;;;;20.22;48.09;99450.04;109614;1251;72830;-57
2023/09/13 00:31:29;;;;;;;16.60;10.60;;;;;;;20.28;48.18;99446.04;109584;1250;60607;-57
2023/09/13 00:33:56;;;;;;;16.90;8.90;;;;;;;20.30;47.89;99447.51;109559;1251;59194;-57
2023/09/13 00:36:23;;;;;;;16.50;9.20;;;;;;;20.24;47.99;99448.09;109623;1250;73509;-56
2023/09/13 00:38:51;;;;;;;12.10;9.50;;;;;;;20.24;48.22;99446.45;109537;1251;66899;-57
2023/09/13 00:41:18;;;;;;;16.00;10.80;;;;;;;20.24;48.21;99447.16;109583;1251;71161;-57
2023/09/13 00:43:44;;;;;;;14.50;9.10;;;;;;;20.24;48.29;99448.34;109614;1251;61074;-57
2023/09/13 00:46:11;;;;;;;27.20;10.20;;;;;;;20.13;48.54;99445.71;109607;1251;60183;-58
2023/09/13 00:48:38;;;;;;;15.30;9.90;;;;;;;20.00;49.16;99444.69;109579;1251;73747;-57
2023/09/13 00:51:05;;;;;;;14.60;9.90;;;;;;;19.92;49.73;99446.02;109603;1250;68598;-57
2023/09/13 00:53:32;;;;;;;19.40;10.90;;;;;;;19.83;50.39;99442.10;109596;1251;72345;-57
2023/09/13 00:55:59;;;;;;;15.60;10.70;;;;;;;19.99;49.73;99440.41;109625;1251;60849;-62
2023/09/13 00:58:26;;;;;;;28.30;11.90;;;;;;;19.95;49.89;99436.28;109569;1250;59055;-56
2023/09/13 01:00:53;;;;;;;19.80;10.50;;;;;;;19.78;50.40;99438.05;109560;1251;73715;-57
2023/09/13 01:03:20;;;;;;;15.90;11.00;;;;;;;19.59;50.91;99435.02;109474;1252;68929;-57
2023/09/13 01:05:49;;;;;;;17.80;11.40;;;;;;;19.50;50.95;99438.36;109459;1253;72376;-56
2023/09/13 01:08:16;;;;;;;18.40;9.60;;;;;;;19.41;51.46;99437.22;109373;1253;60328;-57
2023/09/13 01:10:43;;;;;;;15.80;11.10;;;;;;;19.43;51.48;99433.58;109537;1253;58736;-56
2023/09/13 01:13:09;;;;;;;19.30;11.70;;;;;;;19.33;51.84;99430.65;109635;1252;73605;-57
2023/09/13 01:15:39;;;;;;;16.90;10.70;;;;;;;19.20;52.30;99431.83;109549;1251;67470;-56
2023/09/13 01:18:15;;;;;;;17.30;10.90;;;;;;;19.25;52.26;99426.34;109546;1252;71615;-56
2023/09/13 01:20:50;;;;;;;17.50;11.30;;;;;;;19.23;52.30;99425.63;109498;1252;60436;-56
2023/09/13 01:23:40;;;;;;;19.30;12.60;;;;;;;19.15;52.94;99426.93;109513;1250;59989;-56
2023/09/13 01:26:19;;;;;;;23.80;13.10;;;;;;;19.15;53.17;99427.06;109582;1250;73961;-56
2023/09/13 01:28:46;;;;;;;21.50;12.50;;;;;;;19.11;53.22;99428.99;109626;1250;68766;-57
2023/09/13 01:31:14;;;;;;;22.70;12.40;;;;;;;19.02;53.72;99429.24;109209;1251;72539;-58
2023/09/13 01:33:40;;;;;;;20.80;11.90;;;;;;;18.92;53.66;99428.21;109499;1251;61223;-56
2023/09/13 01:36:07;;;;;;;19.90;11.90;;;;;;;18.74;54.10;99422.89;109242;1251;58204;-56
2023/09/13 01:38:34;;;;;;;19.20;12.30;;;;;;;18.74;54.11;99423.33;109608;1251;73849;-56
2023/09/13 01:41:24;;;;;;;19.60;11.70;;;;;;;18.76;53.62;99424.03;109665;1250;67194;-56
2023/09/13 01:43:54;;;;;;;20.60;12.30;;;;;;;18.63;53.89;99423.00;109465;1251;74006;-57
2023/09/13 01:46:50;;;;;;;20.90;13.00;;;;;;;18.46;54.53;99422.44;109535;1250;60380;-56
2023/09/13 01:49:18;;;;;;;21.90;11.70;;;;;;;18.55;54.68;99418.30;108942;1257;58942;-56
2023/09/13 01:51:45;;;;;;;23.80;13.00;;;;;;;18.50;55.47;99421.85;109086;1257;73363;-56
2023/09/13 01:54:12;;;;;;;23.90;12.70;;;;;;;18.57;55.08;99421.94;108932;1260;68609;-56
2023/09/13 01:56:38;;;;;;;18.50;11.70;;;;;;;18.47;55.12;99421.65;109073;1257;72602;-56
2023/09/13 01:59:05;;;;;;;17.40;12.10;;;;;;;18.34;55.50;99418.16;108911;1257;60473;-57
2023/09/13 02:01:32;;;;;;;20.60;13.20;;;;;;;18.29;55.66;99413.23;108961;1257;59235;-57
2023/09/13 02:03:59;;;;;;;21.80;12.20;;;;;;;18.23;56.20;99411.04;109063;1257;73613;-56
2023/09/13 02:06:26;;;;;;;19.80;13.30;;;;;;;18.32;56.57;99418.05;109009;1257;68578;-55
2023/09/13 02:08:53;;;;;;;17.10;12.40;;;;;;;18.38;56.51;99414.41;108955;1257;70819;-56
2023/09/13 02:11:20;;;;;;;29.70;13.20;;;;;;;18.28;56.60;99419.61;109046;1257;61882;-56
2023/09/13 02:13:47;;;;;;;27.10;14.30;;;;;;;18.15;57.29;99418.65;109031;1257;58890;-55
2023/09/13 02:16:19;;;;;;;23.20;14.00;;;;;;;18.20;57.94;99419.13;108982;1257;74118;-57
2023/09/13 02:18:45;;;;;;;25.10;13.80;;;;;;;18.21;57.94;99420.46;109046;1257;68809;-56
2023/09/13 02:21:12;;;;;;;20.50;13.20;;;;;;;17.93;59.04;99416.15;109059;1257;71415;-56
2023/09/13 02:23:41;;;;;;;24.60;14.90;;;;;;;17.77;60.21;99410.18;109056;1257;62019;-55
2023/09/13 02:26:19;;;;;;;22.50;15.00;;;;;;;17.65;60.75;99409.95;109436;1251;60096;-55
2023/09/13 02:28:46;;;;;;;33.90;16.20;;;;;;;17.50;61.37;99411.30;109721;1250;73605;-55
2023/09/13 02:31:13;;;;;;;132.70;23.50;;;;;;;17.49;61.67;99408.39;109728;1250;68694;-55
2023/09/13 02:33:40;;;;;;;97.10;20.70;;;;;;;17.37;62.34;99407.06;109561;1252;71783;-56
2023/09/13 02:36:06;;;;;;;124.30;23.00;;;;;;;17.27;63.23;99406.77;109385;1253;61000;-56
2023/09/13 02:38:33;;;;;;;63.40;17.60;;;;;;;17.18;63.76;99403.02;109395;1252;59419;-56
2023/09/13 02:41:00;;;;;;;53.20;14.80;;;;;;;17.17;64.07;99403.33;109310;1253;73667;-56
2023/09/13 02:43:26;;;;;;;44.30;16.10;;;;;;;17.07;64.81;99402.05;109540;1252;68431;-55
2023/09/13 02:45:53;;;;;;;32.80;14.40;;;;;;;16.92;65.51;99403.36;109550;1252;71125;-56
2023/09/13 02:48:21;;;;;;;30.70;14.10;;;;;;;16.99;65.53;99396.25;109537;1252;60475;-56
2023/09/13 02:50:48;;;;;;;31.70;14.80;;;;;;;17.05;65.05;99400.58;109491;1252;60419;-56
2023/09/13 02:53:14;;;;;;;26.10;14.80;;;;;;;17.10;64.61;99398.15;109511;1252;72674;-56
2023/09/13 02:55:41;;;;;;;20.20;12.50;;;;;;;16.98;65.55;99400.87;109546;1252;66605;-56
2023/09/13 02:58:08;;;;;;;25.90;13.20;;;;;;;16.87;66.20;99395.83;109517;1252;72028;-56
2023/09/13 03:00:35;;;;;;;21.10;13.80;;;;;;;16.91;65.89;99400.88;109561;1252;61796;-56
2023/09/13 03:03:02;;;;;;;32.10;14.50;;;;;;;16.87;66.69;99397.55;109547;1252;59843;-56
2023/09/13 03:05:29;;;;;;;33.00;16.80;;;;;;;16.88;66.76;99400.07;109371;1252;72499;-56
2023/09/13 03:07:56;;;;;;;41.60;15.90;;;;;;;16.78;67.07;99399.87;109542;1252;67448;-56
2023/09/13 03:10:26;;;;;;;35.10;15.10;;;;;;;16.83;67.15;99398.92;109532;1252;72520;-56
2023/09/13 03:12:53;;;;;;;27.10;15.50;;;;;;;16.99;66.55;99398.78;109458;1252;61824;-56
2023/09/13 03:15:20;;;;;;;41.30;16.30;;;;;;;16.92;66.69;99397.98;109572;1252;59974;-57
2023/09/13 03:17:47;;;;;;;35.00;15.00;;;;;;;16.90;67.31;99399.88;109510;1252;73849;-56
2023/09/13 03:20:13;;;;;;;33.90;15.20;;;;;;;16.91;66.76;99403.71;109538;1252;66387;-55
2023/09/13 03:22:41;;;;;;;31.00;15.40;;;;;;;16.78;67.27;99405.30;109447;1252;70371;-56
2023/09/13 03:25:07;;;;;;;35.90;14.80;;;;;;;16.85;66.66;99403.38;109469;1251;61937;-55
2023/09/13 03:27:35;;;;;;;28.40;14.80;;;;;;;16.77;67.34;99405.56;109519;1251;59062;-55
2023/09/13 03:30:02;;;;;;;23.00;14.20;;;;;;;16.74;67.59;99407.13;109530;1251;72654;-55
2023/09/13 03:32:30;;;;;;;25.70;14.50;;;;;;;16.67;68.50;99408.82;109454;1251;68718;-56
2023/09/13 03:34:57;;;;;;;25.40;15.20;;;;;;;16.67;68.71;99413.59;109388;1250;71909;-55
2023/09/13 03:37:24;;;;;;;29.60;15.20;;;;;;;16.66;68.66;99419.41;109530;1251;60497;-55
2023/09/13 03:39:51;;;;;;;30.10;15.10;;;;;;;16.77;67.99;99417.43;109533;1251;58546;-56
2023/09/13 03:42:17;;;;;;;22.90;13.80;;;;;;;16.75;68.33;99420.73;109279;1251;72276;-57
2023/09/13 03:44:44;;;;;;;30.40;15.20;;;;;;;16.85;67.91;99421.05;109650;1251;66302;-57
2023/09/13 03:47:11;;;;;;;23.20;15.20;;;;;;;17.06;66.79;99422.19;109588;1251;71286;-55
2023/09/13 03:49:38;;;;;;;39.10;15.70;;;;;;;17.10;66.23;99427.27;109557;1251;60734;-55
2023/09/13 03:52:05;;;;;;;28.60;14.80;;;;;;;17.16;65.64;99424.06;109585;1251;58236;-55
2023/09/13 03:54:32;;;;;;;23.20;15.00;;;;;;;17.27;64.93;99422.11;109626;1253;73731;-55
2023/09/13 03:56:59;;;;;;;34.00;16.00;;;;;;;17.24;64.69;99417.02;109640;1251;68602;-55
2023/09/13 03:59:25;;;;;;;26.80;14.60;;;;;;;17.43;63.91;99416.59;109602;1250;71735;-56
2023/09/13 04:01:52;;;;;;;35.20;15.70;;;;;;;17.47;63.67;99421.67;109497;1251;61823;-55
2023/09/13 04:04:19;;;;;;;37.50;15.30;;;;;;;17.62;63.16;99422.55;109619;1251;60021;-56
2023/09/13 04:06:45;;;;;;;46.60;17.30;;;;;;;17.47;63.83;99418.58;109656;1251;72805;-56
2023/09/13 04:09:12;;;;;;;45.00;16.60;;;;;;;17.48;64.23;99420.51;109353;1251;68707;-56
2023/09/13 04:11:39;;;;;;;30.60;15.00;;;;;;;17.62;63.57;99419.58;109576;1251;71347;-56
2023/09/13 04:14:07;;;;;;;71.10;20.10;;;;;;;17.78;63.25;99419.61;109480;1251;61144;-56
2023/09/13 04:16:33;;;;;;;57.00;18.40;;;;;;;17.96;62.47;99415.38;109578;1251;59159;-56
2023/09/13 04:19:00;;;;;;;42.10;18.40;;;;;;;18.18;61.84;99420.54;109584;1252;72800;-55
2023/09/13 04:21:28;;;;;;;36.40;18.80;;;;;;;18.47;60.37;99422.89;109525;1251;67459;-56
2023/09/13 04:23:58;;;;;;;36.70;18.20;;;;;;;18.88;58.29;99428.78;109537;1251;71314;-56
2023/09/13 04:26:25;;;;;;;47.40;18.20;;;;;;;19.19;57.01;99427.59;109552;1251;60850;-57
2023/09/13 04:28:51;;;;;;;48.00;17.90;;;;;;;19.43;56.54;99430.02;109522;1251;119834;-56
2023/09/13 04:31:20;;;;;;;46.20;17.20;;;;;;;19.85;55.51;99430.58;109341;1253;72924;-56
2023/09/13 04:33:52;;;;;;;48.80;16.30;;;;;;;20.28;54.08;99433.56;109263;1250;68594;-57
2023/09/13 04:36:21;;;;;;;35.80;14.60;;;;;;;20.62;52.38;99434.61;109606;1251;72471;-57
2023/09/13 04:38:48;;;;;;;33.00;15.50;;;;;;;21.07;50.74;99436.91;109609;1251;60719;-56
2023/09/13 04:41:15;;;;;;;44.60;16.70;;;;;;;21.44;49.70;99429.35;109511;1251;59984;-56
2023/09/13 04:43:42;;;;;;;38.60;16.40;;;;;;;21.52;48.84;99431.10;109556;1251;73705;-56
2023/09/13 04:46:09;;;;;;;46.40;16.70;;;;;;;21.61;48.29;99431.23;109541;1250;67423;-56
2023/09/13 04:48:36;;;;;;;57.80;18.80;;;;;;;21.71;47.51;99430.89;109378;1251;72777;-56
2023/09/13 04:51:04;;;;;;;53.90;18.10;;;;;;;21.85;46.71;99431.14;109595;1251;62107;-56
2023/09/13 04:53:33;;;;;;;32.80;15.70;;;;;;;22.01;46.30;99434.95;109530;1251;59130;-57
2023/09/13 04:56:00;;;;;;;43.90;14.70;;;;;;;22.11;45.32;99430.70;109651;1250;72657;-55
2023/09/13 04:58:29;;;;;;;58.30;14.90;;;;;;;22.26;44.81;99432.30;109488;1251;68568;-55
2023/09/13 05:01:00;;;;;;;46.00;14.60;;;;;;;22.70;43.91;99434.97;109526;1251;72986;-55
2023/09/13 05:03:26;;;;;;;51.30;13.70;;;;;;;23.12;42.52;99435.30;109521;1251;59005;-56
2023/09/13 05:05:55;;;;;;;69.60;15.70;;;;;;;23.38;41.81;99433.11;109612;1250;59326;-56
2023/09/13 05:08:21;;;;;;;47.00;15.40;;;;;;;23.54;41.20;99437.47;109647;1251;73751;-57
2023/09/13 05:10:51;;;;;;;41.30;13.30;;;;;;;23.45;40.66;99439.11;109661;1250;67342;-57
2023/09/13 05:13:18;;;;;;;82.90;17.80;;;;;;;23.44;40.90;99433.23;109420;1252;71573;-56
2023/09/13 05:15:44;;;;;;;64.20;14.40;;;;;;;23.87;40.53;99434.98;109550;1252;58814;-57
2023/09/13 05:18:11;;;;;;;78.50;18.00;;;;;;;24.16;39.48;99438.39;109544;1252;58883;-57
2023/09/13 05:20:38;;;;;;;42.60;12.50;;;;;;;24.44;39.15;99433.84;109559;1252;72537;-56
2023/09/13 05:23:05;;;;;;;57.40;12.70;;;;;;;24.63;38.27;99436.52;109580;1252;68708;-57
2023/09/13 05:25:31;;;;;;;47.30;12.60;;;;;;;24.69;38.00;99436.06;109593;1251;71738;-57
2023/09/13 05:27:59;;;;;;;51.20;12.60;;;;;;;24.83;37.63;99435.40;109607;1250;60344;-57
2023/09/13 05:30:29;;;;;;;40.10;11.40;;;;;;;24.94;37.50;99433.21;109542;1251;59036;-57
2023/09/13 05:32:56;;;;;;;49.80;10.90;;;;;;;25.13;37.24;99438.88;109554;1251;73617;-57
2023/09/13 05:35:23;;;;;;;40.00;11.10;;;;;;;25.41;36.77;99439.88;109451;1251;68716;-57
2023/09/13 05:37:49;;;;;;;58.60;13.60;;;;;;;25.78;36.32;99445.30;109633;1250;71133;-57
2023/09/13 05:40:17;;;;;;;65.20;29.70;;;;;;;25.95;35.34;99453.23;109632;1251;60129;-57
2023/09/13 05:42:44;;;;;;;54.50;28.50;;;;;;;25.86;34.76;99456.82;109528;1251;60162;-57
2023/09/13 05:45:10;;;;;;;30.90;15.60;;;;;;;25.85;35.26;99461.96;109705;1250;73695;-57
2023/09/13 05:47:37;;;;;;;37.70;18.00;;;;;;;25.85;34.43;99465.48;109627;1250;67112;-57
2023/09/13 05:50:04;;;;;;;30.20;20.60;;;;;;;25.96;34.35;99463.39;109643;1251;72481;-55
2023/09/13 05:52:33;;;;;;;33.40;13.70;;;;;;;26.34;34.37;99458.38;109465;1251;60361;-55
2023/09/13 05:54:59;;;;;;;44.40;17.00;;;;;;;26.47;33.63;99463.44;109620;1251;60216;-56
2023/09/13 05:57:28;;;;;;;40.60;15.30;;;;;;;26.66;33.37;99464.86;109688;1250;73544;-56
2023/09/13 05:59:54;;;;;;;30.50;12.60;;;;;;;26.61;33.10;99465.00;109668;1250;68263;-56
2023/09/13 06:02:21;;;;;;;24.50;12.70;;;;;;;26.55;33.22;99466.05;109580;1251;72369;-56
2023/09/13 06:04:48;;;;;;;24.20;12.20;;;;;;;26.70;33.22;99464.30;109455;1251;60139;-56
2023/09/13 06:07:15;;;;;;;25.80;11.60;;;;;;;26.67;33.41;99466.77;109687;1250;59421;-56
2023/09/13 06:09:41;;;;;;;30.70;12.90;;;;;;;27.21;32.73;99468.85;109663;1250;73675;-57
2023/09/13 06:12:08;;;;;;;28.20;12.50;;;;;;;27.40;32.83;99465.78;109606;1252;68464;-57
2023/09/13 06:14:36;;;;;;;23.60;12.20;;;;;;;27.85;32.57;99469.56;109506;1252;72672;-56
2023/09/13 06:17:03;;;;;;;25.50;11.10;;;;;;;27.89;32.46;99466.88;109511;1252;60361;-57
2023/09/13 06:19:29;;;;;;;30.10;10.20;;;;;;;28.02;32.47;99468.08;109594;1251;59628;-58
2023/09/13 06:21:56;;;;;;;15.20;8.50;;;;;;;28.23;32.35;99474.27;109592;1252;73707;-60
2023/09/13 06:24:24;;;;;;;26.60;9.40;;;;;;;28.42;32.08;99473.26;109647;1250;68584;-57
2023/09/13 06:26:52;;;;;;;15.60;8.00;;;;;;;28.53;31.22;99472.77;109300;1251;72408;-56
2023/09/13 06:29:19;;;;;;;21.40;8.80;;;;;;;28.17;31.14;99472.22;109414;1251;60467;-58
2023/09/13 06:31:47;;;;;;;23.30;9.60;;;;;;;28.11;31.59;99472.07;109525;1251;59995;-56
2023/09/13 06:34:18;;;;;;;14.40;9.20;;;;;;;28.27;31.36;99476.05;109646;1251;72363;-59
2023/09/13 06:36:51;;;;;;;18.00;8.70;;;;;;;28.45;31.28;99478.27;109657;1251;67355;-55
2023/09/13 06:39:19;;;;;;;98.10;14.50;;;;;;;28.54;30.84;99478.23;109606;1251;71559;-56
2023/09/13 06:41:46;;;;;;;27.60;8.90;;;;;;;28.88;31.02;99477.42;109616;1251;60686;-58
2023/09/13 06:44:13;;;;;;;31.20;9.50;;;;;;;29.50;30.19;99477.35;109539;1251;60132;-59
2023/09/13 06:46:40;;;;;;;14.80;7.60;;;;;;;29.75;29.67;99474.41;109658;1251;72327;-56
2023/09/13 06:49:13;;;;;;;34.10;9.40;;;;;;;29.64;29.70;99474.32;109686;1251;68455;-60
2023/09/13 06:51:41;;;;;;;25.70;9.30;;;;;;;30.00;29.34;99480.80;109454;1251;72481;-58
2023/09/13 06:54:11;;;;;;;16.90;8.20;;;;;;;30.34;29.07;99479.88;109653;1251;60491;-57
2023/09/13 06:56:41;;;;;;;23.00;8.30;;;;;;;30.78;28.74;99486.85;109625;1251;60322;-57
2023/09/13 06:59:11;;;;;;;16.00;7.70;;;;;;;30.89;28.29;99488.65;109631;1251;73759;-57
2023/09/13 07:01:40;;;;;;;14.30;7.20;;;;;;;30.41;28.50;99485.52;109650;1251;67480;-57
2023/09/13 07:04:27;;;;;;;33.20;8.00;;;;;;;29.99;29.00;99479.69;109505;1251;73147;-54
2023/09/13 07:07:06;;;;;;;116.70;15.30;;;;;;;30.20;29.10;99478.39;109628;1251;60368;-58
2023/09/13 07:09:33;;;;;;;10.60;6.10;;;;;;;30.39;28.84;99479.77;109696;1251;60074;-57
2023/09/13 07:12:00;;;;;;;13.80;6.30;;;;;;;30.32;28.71;99481.92;109685;1252;73620;-55
2023/09/13 07:14:27;;;;;;;11.80;5.70;;;;;;;30.88;28.65;99484.20;109594;1252;68536;-55
2023/09/13 07:16:53;;;;;;;10.10;5.70;;;;;;;31.11;28.38;99486.70;109547;1252;72493;-55
2023/09/13 07:19:20;;;;;;;10.90;6.20;;;;;;;31.16;27.83;99484.64;109484;1252;58827;-56
2023/09/13 07:21:47;;;;;;;13.70;6.80;;;;;;;30.70;27.92;99482.23;109606;1252;60101;-56
2023/09/13 07:24:14;;;;;;;8.40;6.30;;;;;;;30.74;27.95;99481.22;109595;1251;72442;-56
2023/09/13 07:26:41;;;;;;;11.70;5.50;;;;;;;31.25;28.06;99482.19;109711;1250;67870;-57
2023/09/13 07:29:07;;;;;;;16.10;5.80;;;;;;;31.64;27.75;99480.15;109644;1251;72511;-57
2023/09/13 07:31:34;;;;;;;14.30;7.10;;;;;;;32.14;27.66;99486.95;109668;1251;58192;-57
2023/09/13 07:34:02;;;;;;;14.00;6.40;;;;;;;32.42;27.73;99489.08;109515;1251;58310;-57
2023/09/13 07:36:29;;;;;;;16.90;6.90;;;;;;;32.23;27.26;99489.95;109669;1251;73834;-57
2023/09/13 07:38:56;;;;;;;10.90;5.70;;;;;;;32.26;27.45;99487.32;109368;1251;68839;-57
2023/09/13 07:41:23;;;;;;;14.70;6.00;;;;;;;32.39;27.18;99486.72;109651;1251;62829;-57
2023/09/13 07:43:49;;;;;;;10.70;6.40;;;;;;;32.62;26.86;99485.13;109649;1251;58142;-57
2023/09/13 07:46:16;;;;;;;11.10;5.30;;;;;;;32.67;26.64;99489.15;109697;1251;58136;-58
2023/09/13 07:48:43;;;;;;;8.30;5.10;;;;;;;32.65;26.70;99484.09;109608;1251;74284;-57
2023/09/13 07:51:10;;;;;;;13.90;4.60;;;;;;;32.71;26.25;99488.48;109671;1251;59902;-56
2023/09/13 07:53:36;;;;;;;11.20;5.00;;;;;;;32.77;25.97;99488.23;109653;1251;63833;-57
2023/09/13 07:56:03;;;;;;;11.60;4.90;;;;;;;32.53;25.96;99486.42;109646;1251;58085;-57
2023/09/13 07:58:30;;;;;;;25.60;4.30;;;;;;;32.38;25.88;99483.23;109623;1251;58042;-58
2023/09/13 08:00:58;;;;;;;10.50;4.40;;;;;;;32.67;25.74;99486.75;109668;1251;63720;-56
2023/09/13 08:03:25;;;;;;;10.70;3.90;;;;;;;32.88;25.30;99488.09;109667;1251;59925;-57
2023/09/13 08:05:51;;;;;;;8.50;4.00;;;;;;;32.86;25.30;99490.55;109631;1251;63938;-56
2023/09/13 08:08:22;;;;;;;6.00;3.60;;;;;;;32.85;25.27;99488.49;109626;1251;58175;-58
2023/09/13 08:10:50;;;;;;;7.90;4.10;;;;;;;32.96;24.94;99487.08;109695;1251;58204;-57
2023/09/13 08:13:17;;;;;;;12.00;3.80;;;;;;;32.84;25.15;99486.52;109291;1252;65034;-56
2023/09/13 08:15:45;;;;;;;10.80;3.80;;;;;;;32.76;25.39;99487.44;109338;1252;60942;-57
2023/09/13 08:18:16;;;;;;;10.20;3.90;;;;;;;33.10;25.07;99488.50;109602;1252;63945;-57
2023/09/13 08:20:43;;;;;;;9.00;3.20;;;;;;;33.38;24.78;99489.33;109577;1252;58117;-58
2023/09/13 08:23:10;;;;;;;13.70;3.80;;;;;;;33.17;24.63;99489.26;109608;1251;58127;-56
2023/09/13 08:25:37;;;;;;;4.80;3.60;;;;;;;32.58;25.26;99481.64;109649;1251;66272;-57
2023/09/13 08:28:04;;;;;;;9.10;3.10;;;;;;;32.72;25.23;99483.40;109617;1251;59083;-58
2023/09/13 08:30:31;;;;;;;12.00;3.50;;;;;;;33.22;25.06;99482.62;109532;1251;63787;-57
2023/09/13 08:32:58;;;;;;;17.60;3.80;;;;;;;33.53;24.61;99478.23;109522;1251;58172;-57
2023/09/13 08:35:25;;;;;;;10.50;3.20;;;;;;;33.57;24.08;99480.60;109659;1251;58249;-56
2023/09/13 08:37:52;;;;;;;8.40;2.80;;;;;;;33.45;24.10;99476.63;109613;1251;65339;-56
2023/09/13 08:40:19;;;;;;;4.60;3.10;;;;;;;33.25;23.95;99475.53;109434;1253;68815;-57
2023/09/13 08:42:46;;;;;;;9.80;3.70;;;;;;;33.15;24.24;99478.16;109636;1251;64027;-59
2023/09/13 08:45:13;;;;;;;7.40;2.90;;;;;;;33.45;24.33;99481.48;109584;1251;58134;-57
2023/09/13 08:47:42;;;;;;;7.70;3.80;;;;;;;33.75;23.82;99481.31;109620;1251;58147;-57
2023/09/13 08:50:27;;;;;;;5.40;2.90;;;;;;;33.75;23.92;99484.64;109673;1251;64898;-56
2023/09/13 08:52:53;;;;;;;19.60;3.70;;;;;;;33.56;24.23;99480.20;109588;1250;58629;-57
2023/09/13 08:55:20;;;;;;;8.90;4.00;;;;;;;34.05;23.77;99479.10;109593;1251;62595;-59
2023/09/13 08:57:47;;;;;;;11.40;3.90;;;;;;;34.20;23.40;99476.16;109465;1251;58168;-56
2023/09/13 09:00:15;;;;;;;12.00;3.40;;;;;;;34.19;23.43;99472.04;109690;1251;58204;-57
2023/09/13 09:02:42;;;;;;;11.60;2.50;;;;;;;34.44;23.49;99468.38;109275;1251;63692;-57
2023/09/13 09:05:10;;;;;;;;;;;;;;;34.06;23.05;99468.41;109477;1251;60153;-57
2023/09/13 09:07:38;;;;;;;5.80;2.60;;;;;;;33.22;23.74;99462.98;109627;1251;62584;-57
2023/09/13 09:10:11;;;;;;;5.60;2.70;;;;;;;33.25;23.83;99459.02;109460;1253;58285;-56
2023/09/13 09:12:46;;;;;;;22.80;4.30;;;;;;;33.03;23.93;99463.36;109339;1255;58293;-65
2023/09/13 09:15:13;;;;;;;11.30;3.50;;;;;;;33.25;23.81;99460.02;109286;1254;65281;-58
2023/09/13 09:17:41;;;;;;;12.50;3.40;;;;;;;33.64;23.57;99461.92;109332;1253;59817;-56
2023/09/13 09:20:08;;;;;;;11.80;3.80;;;;;;;34.18;22.97;99458.83;109491;1254;62767;-57
2023/09/13 09:22:35;;;;;;;14.10;3.00;;;;;;;34.47;22.97;99459.49;109497;1253;58159;-57
2023/09/13 09:25:02;;;;;;;4.30;2.80;;;;;;;34.67;23.09;99457.96;109403;1254;58530;-57
2023/09/13 09:27:29;;;;;;;6.60;4.20;;;;;;;35.11;22.62;99454.55;109180;1255;66147;-56
2023/09/13 09:30:00;;;;;;;11.40;3.80;;;;;;;34.94;22.58;99449.30;109093;1255;60136;-56
2023/09/13 09:32:27;;;;;;;18.00;4.20;;;;;;;34.79;22.70;99450.56;109360;1254;62449;-56
2023/09/13 09:34:55;;;;;;;7.50;2.50;;;;;;;34.63;22.24;99453.23;109366;1254;58359;-57
2023/09/13 09:37:28;;;;;;;12.20;3.20;;;;;;;34.80;21.80;99450.45;109124;1254;58272;-57
2023/09/13 09:39:55;;;;;;;10.70;2.60;;;;;;;34.81;21.67;99446.94;109452;1254;65434;-56
2023/09/13 09:42:21;;;;;;;8.60;3.20;;;;;;;34.53;21.79;99445.41;109391;1253;60314;-56
2023/09/13 09:44:48;;;;;;;5.80;2.40;;;;;;;34.75;21.22;99441.98;109615;1251;64329;-57
2023/09/13 09:47:15;;;;;;;5.50;2.50;;;;;;;34.85;21.14;99439.88;109462;1251;58539;-57
2023/09/13 09:49:48;;;;;;;12.50;3.20;;;;;;;34.81;21.21;99441.20;109667;1251;58043;-60
2023/09/13 09:52:15;;;;;;;7.80;3.00;;;;;;;34.63;21.34;99442.02;109452;1251;65241;-60
2023/09/13 09:54:51;;;;;;;7.40;2.70;;;;;;;34.85;21.12;99440.18;109603;1251;60188;-60
2023/09/13 09:57:20;;;;;;;9.50;2.90;;;;;;;34.67;21.15;99441.02;109632;1252;64015;-61
2023/09/13 09:59:48;;;;;;;5.20;2.50;;;;;;;34.21;21.10;99442.09;109588;1253;58176;-61
2023/09/13 10:02:15;;;;;;;;;;;;;;;34.38;20.52;99444.65;109666;1251;58460;-58
2023/09/13 10:04:45;;;;;;;7.90;2.80;;;;;;;34.63;20.42;99443.60;109341;1251;64976;-61
2023/09/13 10:07:13;;;;;;;11.40;3.10;;;;;;;35.41;19.77;99445.36;109385;1251;59897;-60
2023/09/13 10:09:41;;;;;;;10.00;3.20;;;;;;;36.03;19.78;99450.77;109663;1251;63741;-58
2023/09/13 10:12:09;;;;;;;9.70;2.90;;;;;;;36.24;19.99;99444.06;109617;1252;58198;-57
2023/09/13 10:14:37;;;;;;;13.70;3.00;;;;;;;36.22;20.28;99443.22;109612;1252;58051;-60
2023/09/13 10:17:04;;;;;;;10.30;3.20;;;;;;;35.67;20.25;99439.73;109577;1253;66181;-59
2023/09/13 10:19:32;;;;;;;7.70;3.10;;;;;;;35.61;20.60;99438.63;109253;1253;59917;-58
2023/09/13 10:21:59;;;;;;;;;;;;;;;35.62;20.37;99443.27;109595;1252;62907;-57
2023/09/13 10:24:38;;;;;;;4.30;2.60;;;;;;;35.55;20.27;99441.14;109680;1253;58178;-57
2023/09/13 10:27:09;;;;;;;6.60;2.30;;;;;;;35.82;20.69;99437.37;109592;1253;58159;-60
2023/09/13 10:29:55;;;;;;;9.60;2.60;;;;;;;36.45;20.21;99440.10;109683;1251;65221;-58
2023/09/13 10:32:22;;;;;;;13.00;3.10;;;;;;;36.15;20.16;99441.69;109618;1253;68914;-57
2023/09/13 10:34:53;;;;;;;11.70;3.50;;;;;;;35.94;20.38;99437.32;109590;1251;63997;-58
2023/09/13 10:37:41;;;;;;;7.50;3.10;;;;;;;35.98;20.64;99432.29;109615;1251;58146;-57
2023/09/13 10:40:38;;;;;;;6.20;2.90;;;;;;;35.58;21.21;99429.45;109657;1256;58433;-58
2023/09/13 10:43:05;;;;;;;6.40;2.70;;;;;;;35.27;21.46;99425.05;109037;1257;64054;-57
2023/09/13 10:45:32;;;;;;;;;;;;;;;35.40;21.27;99427.69;109250;1258;60086;-57
2023/09/13 10:47:59;;;;;;;7.10;2.90;;;;;;;35.29;21.26;99419.73;109262;1257;64016;-56
2023/09/13 10:50:27;;;;;;;14.90;4.10;;;;;;;35.01;21.67;99420.11;109112;1256;58149;-56
2023/09/13 10:52:53;;;;;;;11.60;3.30;;;;;;;34.72;21.90;99420.39;109251;1256;59115;-57
2023/09/13 10:55:20;;;;;;;7.50;2.80;;;;;;;34.59;22.23;99416.92;109088;1257;64052;-56
2023/09/13 10:57:47;;;;;;;8.60;2.80;;;;;;;34.55;22.11;99418.54;109294;1257;59190;-56
2023/09/13 11:00:15;;;;;;;6.30;3.20;;;;;;;35.05;21.59;99418.06;109253;1255;62500;-57
2023/09/13 11:02:43;;;;;;;8.20;3.00;;;;;;;35.44;21.46;99416.29;109233;1257;58315;-57
2023/09/13 11:05:10;;;;;;;5.10;3.00;;;;;;;35.48;20.92;99418.14;109285;1257;58267;-56
2023/09/13 11:07:41;;;;;;;;;;;;;;;35.23;21.28;99418.49;109134;1257;63710;-57
2023/09/13 11:10:15;;;;;;;11.20;3.40;;;;;;;35.23;21.31;99414.59;109268;1256;59968;-56
2023/09/13 11:12:51;;;;;;;9.50;5.10;;;;;;;35.74;21.50;99413.44;109198;1257;64051;-57
2023/09/13 11:15:25;;;;;;;9.00;3.50;;;;;;;35.52;22.02;99406.74;109049;1257;58200;-56
2023/09/13 11:17:53;;;;;;;8.90;3.70;;;;;;;34.68;22.00;99408.40;109187;1256;58288;-55
2023/09/13 11:20:23;;;;;;;8.00;3.30;;;;;;;34.36;22.20;99407.59;109527;1252;66368;-58
2023/09/13 11:23:12;;;;;;;7.10;3.20;;;;;;;34.10;22.38;99407.36;109545;1253;60163;-56